Aeroporto :
LOGIN :

Iscrizione | Disclaimer

   EN    FR    IT 

 










Sommario :    VFR   VFR Marginale   IFR   IFR Intensivo   IFR Molto Intensivo
Visibilità : 
Base nubi : 
>= 8 km
>= 3000ft
5 / 8 km
1000 / 3000 ft
1500m / 5 km
500 / 1000 ft
800 / 1500m
200 / 500 ft
< 800m
< 200 ft
Simboli :   Temporali  Nebbia  Neve Forte  Precipitazioni Forti  Vento > 20 kt
SIGMETs :   Varie  Temporali  Ghiacco  Turbolenza  Onda orograficha  Ceneri Vulcaniche







- Altitudine del aeroporto : 13 ft
- Codice IATA : LYX
- Carte del aeroporto


EGMD - Lydd

ULTIMO METAR :
  • 230220Z AUTO 24006KT 4800 BR NCD 08/07 Q1029

METARs OBSOLETI :
  • 230150Z AUTO 22007KT 4700 HZ FEW027/// BKN033/// 08/07 Q1029
  • 230120Z AUTO 22007KT 8000 OVC023/// 09/08 Q1029
  • 230050Z AUTO 25004KT 8000 OVC023/// 09/08 Q1029
  • 230020Z AUTO 25006KT 7000 OVC025/// 09/08 Q1029
  • 222350Z AUTO 24006KT 6000 OVC023/// 09/08 Q1029

TAF TAF EGMD
Valido dal 23 a 03 ore il 23 a 12 ore UTC


230201Z 2303/2312 22006KT 9999 BKN018
TEMPO 2303/2305 4000 HZ
PROB40
TEMPO 2305/2312 8000 -RA BKN012
BECMG 2306/2309 36010KT
ATIS : +44 1797 322 422
Nessun NOTAM noto per questo aeroporto.



MetMap, La meteo Aeronautica in un colpo d'occhio ! - Copyright ORBIFLY Dicembre 2007 - Disclaimer

ORBIFLY MET'MAP TEAM :

Programmazione e sviluppo : Alexandra Zaïnal
Concezione e sviluppo : Baudouin d'Aumeries
Co-Programmazione e sviluppo : Marc-Olivier Méhu
Supporto tecnico e logistico : Manuel Goepfert
Aiuto per la traduzione : Arnaldo La Scala

Contatto : metmap@orbifly.com




FONTI E CREDITI :

   NOAA